Subpeak Weather - Last 24 Hours


View Last Hour    View Last 24 Hours

Time
Avg. Air Temp
Dew Point
Avg. Rel Humidity
Avg. 2 Min Wind Speed
Max Gust Velocity
MGV Time
MGV Direction
Avg. Spot Wind Velocity
2015-03-28 05:15:00-1° C-2° C97%24 km/h33 km/h2015-03-28 05:11:00W22 km/h
2015-03-28 04:15:00-1° C-1° C98%15 km/h37 km/h2015-03-28 04:11:00S21 km/h
2015-03-28 03:15:00-1° C-1° C98%43 km/h48 km/h2015-03-28 03:14:10W42 km/h
2015-03-28 02:15:00-0° C-1° C97%23 km/h48 km/h2015-03-28 02:11:00SW23 km/h
2015-03-28 01:15:001° C-0° C90%23 km/h31 km/h2015-03-28 01:15:10SW26 km/h
2015-03-28 00:15:001° C0° C92%34 km/h41 km/h2015-03-28 00:15:10SW31 km/h
2015-03-27 23:15:001° C-0° C90%29 km/h35 km/h2015-03-27 23:11:00S29 km/h
2015-03-27 22:15:001° C1° C98%31 km/h36 km/h2015-03-27 22:13:10S32 km/h
2015-03-27 21:15:001° C0° C96%31 km/h42 km/h2015-03-27 21:15:10SE29 km/h
2015-03-27 20:15:001° C-0° C90%26 km/h36 km/h2015-03-27 20:11:00SE27 km/h
2015-03-27 19:15:001° C0° C94%34 km/h54 km/h2015-03-27 19:12:10SE38 km/h
2015-03-27 18:15:001° C-0° C92%38 km/h49 km/h2015-03-27 18:11:00S40 km/h
2015-03-27 17:15:001° C0° C97%37 km/h42 km/h2015-03-27 17:14:10SE33 km/h
2015-03-27 16:15:001° C-0° C88%29 km/h36 km/h2015-03-27 16:11:00S31 km/h
2015-03-27 15:15:001° C-1° C85%20 km/h31 km/h2015-03-27 15:12:10SE24 km/h
2015-03-27 14:15:001° C-1° C79%29 km/h34 km/h2015-03-27 14:14:10SE23 km/h
2015-03-27 13:15:001° C-4° C70%21 km/h28 km/h2015-03-27 13:12:10SE22 km/h
2015-03-27 12:15:001° C-3° C78%30 km/h35 km/h2015-03-27 12:14:10S27 km/h
2015-03-27 11:15:000° C-4° C75%33 km/h36 km/h2015-03-27 11:13:10S32 km/h
2015-03-27 10:15:00-1° C-3° C89%35 km/h36 km/h2015-03-27 10:15:10S34 km/h
2015-03-27 09:15:00-1° C-2° C96%36 km/h38 km/h2015-03-27 09:15:10S36 km/h
2015-03-27 08:15:00-1° C-2° C97%36 km/h44 km/h2015-03-27 08:13:10S37 km/h
2015-03-27 07:10:00-1° C-2° C97%38 km/h40 km/h2015-03-27 07:06:00S38 km/h
2015-03-27 06:10:00-1° C-2° C97%25 km/h27 km/h2015-03-27 06:10:10S22 km/h